createdAt,value
2022-08-28T00:00:01.161Z,18.06
2022-08-28T00:01:00.316Z,18.08
2022-08-28T00:02:00.480Z,18.08
2022-08-28T00:03:00.757Z,18.04
2022-08-28T00:04:00.789Z,18.04
2022-08-28T00:05:01.007Z,18.04
2022-08-28T00:06:01.104Z,18.05
2022-08-28T00:07:00.254Z,18.05
2022-08-28T00:08:00.460Z,18.05
2022-08-28T00:09:00.563Z,18.03
2022-08-28T00:10:00.705Z,17.98
2022-08-28T00:11:00.857Z,17.97
2022-08-28T00:12:00.989Z,17.99
2022-08-28T00:13:01.180Z,17.97
2022-08-28T00:14:00.298Z,17.94
2022-08-28T00:15:00.453Z,17.94
2022-08-28T00:16:00.659Z,17.97
2022-08-28T00:17:00.737Z,17.98
2022-08-28T00:18:00.936Z,17.97
2022-08-28T00:19:01.043Z,17.91
2022-08-28T00:20:01.206Z,17.91
2022-08-28T00:21:00.355Z,17.91
2022-08-28T00:22:00.538Z,17.89
2022-08-28T00:23:00.652Z,17.85
2022-08-28T00:24:00.798Z,17.82
2022-08-28T00:25:00.955Z,17.85
2022-08-28T00:26:01.094Z,17.87
2022-08-28T00:27:01.284Z,17.84
2022-08-28T00:28:00.397Z,17.81
2022-08-28T00:29:00.560Z,17.81
2022-08-28T00:30:00.716Z,17.82
2022-08-28T00:31:00.889Z,17.83
2022-08-28T00:32:01.040Z,17.83
2022-08-28T00:33:01.168Z,17.82
2022-08-28T00:34:00.314Z,17.83
2022-08-28T00:35:00.464Z,17.82
2022-08-28T00:36:00.611Z,17.82
2022-08-28T00:37:00.800Z,17.83
2022-08-28T00:38:00.909Z,17.84
2022-08-28T00:39:01.065Z,17.82
2022-08-28T00:40:01.291Z,17.81
2022-08-28T00:41:00.393Z,17.82
2022-08-28T00:42:00.550Z,17.81
2022-08-28T00:43:00.675Z,17.8
2022-08-28T00:44:00.837Z,17.8
2022-08-28T00:45:00.976Z,17.81
2022-08-28T00:46:01.161Z,17.8
2022-08-28T00:47:00.323Z,17.8
2022-08-28T00:48:00.432Z,17.8
2022-08-28T00:49:00.591Z,17.81
2022-08-28T00:50:00.737Z,17.81
2022-08-28T00:51:00.994Z,17.79
2022-08-28T00:52:01.057Z,17.79
2022-08-28T00:53:01.222Z,17.76
2022-08-28T00:54:03.110Z,17.75
2022-08-28T00:55:00.523Z,17.74
2022-08-28T00:56:00.680Z,17.74
2022-08-28T00:57:00.847Z,17.75
2022-08-28T00:58:00.957Z,17.74
2022-08-28T00:59:01.128Z,17.73
2022-08-28T01:00:00.280Z,17.73
2022-08-28T01:01:00.437Z,17.73
2022-08-28T01:02:00.669Z,17.73
2022-08-28T01:03:00.868Z,17.72
2022-08-28T01:04:00.886Z,17.69
2022-08-28T01:05:01.032Z,17.7
2022-08-28T01:06:01.190Z,17.69
2022-08-28T01:07:00.361Z,17.68
2022-08-28T01:08:00.491Z,17.68
2022-08-28T01:09:00.636Z,17.68
2022-08-28T01:10:00.784Z,17.67
2022-08-28T01:11:00.935Z,17.66
2022-08-28T01:12:01.126Z,17.66
2022-08-28T01:13:01.249Z,17.66
2022-08-28T01:14:01.869Z,17.66
2022-08-28T01:15:00.551Z,17.66
2022-08-28T01:16:00.748Z,17.65
2022-08-28T01:17:00.874Z,17.66
2022-08-28T01:18:12.192Z,17.66
2022-08-28T01:19:01.136Z,17.66
2022-08-28T01:20:00.300Z,17.64
2022-08-28T01:21:00.443Z,17.64
2022-08-28T01:22:00.627Z,17.64
2022-08-28T01:23:00.770Z,17.64
2022-08-28T01:24:00.898Z,17.64
2022-08-28T01:25:01.046Z,17.65
2022-08-28T01:26:01.366Z,17.64
2022-08-28T01:27:00.389Z,17.64
2022-08-28T01:28:00.504Z,17.62
2022-08-28T01:29:00.665Z,17.62
2022-08-28T01:30:00.810Z,17.63
2022-08-28T01:31:01.002Z,17.63
2022-08-28T01:32:01.140Z,17.6
2022-08-28T01:33:00.252Z,17.6
2022-08-28T01:34:00.405Z,17.6
2022-08-28T01:35:00.554Z,17.61
2022-08-28T01:36:00.706Z,17.54
2022-08-28T01:37:03.628Z,17.56
2022-08-28T01:38:01.003Z,17.6
2022-08-28T01:39:01.153Z,17.58
2022-08-28T01:40:00.442Z,17.54
2022-08-28T01:41:00.460Z,17.54
2022-08-28T01:42:00.654Z,17.54
2022-08-28T01:43:00.772Z,17.5
2022-08-28T01:44:00.926Z,17.47
2022-08-28T01:45:01.071Z,17.45
2022-08-28T01:46:01.316Z,17.47
2022-08-28T01:47:00.414Z,17.48
2022-08-28T01:48:00.530Z,17.46
2022-08-28T01:49:00.735Z,17.49
2022-08-28T01:50:00.833Z,17.47
2022-08-28T01:51:00.970Z,17.47
2022-08-28T01:52:01.160Z,17.44
2022-08-28T01:53:00.277Z,17.4
2022-08-28T01:54:00.428Z,17.38
2022-08-28T01:55:00.568Z,17.39
2022-08-28T01:56:00.735Z,17.37
2022-08-28T01:57:00.902Z,17.35
2022-08-28T01:58:01.025Z,17.35
2022-08-28T01:59:01.176Z,17.35
2022-08-28T02:00:00.336Z,17.35
2022-08-28T02:01:00.483Z,17.35
2022-08-28T02:02:00.705Z,17.35
2022-08-28T02:03:00.811Z,17.34
2022-08-28T02:04:00.943Z,17.33
2022-08-28T02:05:01.075Z,17.33
2022-08-28T02:06:01.224Z,17.32
2022-08-28T02:07:00.387Z,17.32
2022-08-28T02:08:00.555Z,17.33
2022-08-28T02:09:00.679Z,17.33
2022-08-28T02:10:00.828Z,17.32
2022-08-28T02:11:00.974Z,17.32
2022-08-28T02:12:01.129Z,17.28
2022-08-28T02:13:00.310Z,17.24
2022-08-28T02:14:00.433Z,17.24
2022-08-28T02:15:00.585Z,17.21
2022-08-28T02:16:00.807Z,17.19
2022-08-28T02:17:00.886Z,17.18
2022-08-28T02:18:01.061Z,17.18
2022-08-28T02:19:01.214Z,17.17
2022-08-28T02:20:00.341Z,17.15
2022-08-28T02:21:00.490Z,17.14
2022-08-28T02:22:00.638Z,17.13
2022-08-28T02:23:00.787Z,17.11
2022-08-28T02:24:00.960Z,17.1
2022-08-28T02:25:01.120Z,17.07
2022-08-28T02:26:01.234Z,17.07
2022-08-28T02:27:00.393Z,17.06
2022-08-28T02:28:00.536Z,17.04
2022-08-28T02:29:00.684Z,17.03
2022-08-28T02:30:00.868Z,17.02
2022-08-28T02:31:01.107Z,17.02
2022-08-28T02:32:01.136Z,17
2022-08-28T02:33:00.289Z,17
2022-08-28T02:34:00.440Z,17
2022-08-28T02:35:00.627Z,16.98
2022-08-28T02:36:00.737Z,16.98
2022-08-28T02:37:00.893Z,16.98
2022-08-28T02:38:01.046Z,16.98
2022-08-28T02:39:01.189Z,16.96
2022-08-28T02:40:00.425Z,16.95
2022-08-28T02:41:00.515Z,16.95
2022-08-28T02:42:00.646Z,16.94
2022-08-28T02:43:00.794Z,16.93
2022-08-28T02:44:00.944Z,16.93
2022-08-28T02:45:01.126Z,16.93
2022-08-28T02:46:01.293Z,16.92
2022-08-28T02:47:00.385Z,16.92
2022-08-28T02:48:00.539Z,16.92
2022-08-28T02:49:00.684Z,16.92
2022-08-28T02:50:00.857Z,16.92
2022-08-28T02:51:01.000Z,16.91
2022-08-28T02:52:01.137Z,16.89
2022-08-28T02:53:00.306Z,16.89
2022-08-28T02:54:00.444Z,16.88
2022-08-28T02:55:00.627Z,16.89
2022-08-28T02:56:00.749Z,16.89
2022-08-28T02:57:00.909Z,16.88
2022-08-28T02:58:01.059Z,16.87
2022-08-28T02:59:01.202Z,16.86
2022-08-28T03:00:00.378Z,16.85
2022-08-28T03:01:00.549Z,16.86
2022-08-28T03:02:00.662Z,16.87
2022-08-28T03:03:00.882Z,16.85
2022-08-28T03:04:00.952Z,16.85
2022-08-28T03:05:01.138Z,16.84
2022-08-28T03:07:00.353Z,16.81
2022-08-28T03:08:00.506Z,16.81
2022-08-28T03:09:00.675Z,16.82
2022-08-28T03:10:00.840Z,16.76
2022-08-28T03:11:00.958Z,16.74
2022-08-28T03:12:01.106Z,16.73
2022-08-28T03:13:00.267Z,16.71
2022-08-28T03:14:00.419Z,16.73
2022-08-28T03:15:00.602Z,16.71
2022-08-28T03:16:00.719Z,16.71
2022-08-28T03:17:00.930Z,16.7
2022-08-28T03:18:01.032Z,16.73
2022-08-28T03:19:01.184Z,16.71
2022-08-28T03:20:00.362Z,16.7
2022-08-28T03:21:00.519Z,16.7
2022-08-28T03:22:00.656Z,16.69
2022-08-28T03:23:00.787Z,16.69
2022-08-28T03:24:00.964Z,16.7
2022-08-28T03:25:01.113Z,16.71
2022-08-28T03:26:00.294Z,16.66
2022-08-28T03:27:00.410Z,16.63
2022-08-28T03:28:00.579Z,16.63
2022-08-28T03:29:00.732Z,16.64
2022-08-28T03:30:00.875Z,16.63
2022-08-28T03:31:01.154Z,16.62
2022-08-28T03:32:01.200Z,16.61
2022-08-28T03:33:00.328Z,16.61
2022-08-28T03:34:00.480Z,16.61
2022-08-28T03:35:00.639Z,16.61
2022-08-28T03:36:00.814Z,16.62
2022-08-28T03:37:00.935Z,16.61
2022-08-28T03:38:01.088Z,16.61
2022-08-28T03:39:01.234Z,16.63
2022-08-28T03:40:00.483Z,16.63
2022-08-28T03:41:00.558Z,16.62
2022-08-28T03:42:00.715Z,16.6
2022-08-28T03:43:00.836Z,16.58
2022-08-28T03:44:00.993Z,16.57
2022-08-28T03:45:01.146Z,16.57
2022-08-28T03:46:00.368Z,16.57
2022-08-28T03:47:00.479Z,16.57
2022-08-28T03:48:00.639Z,16.55
2022-08-28T03:49:00.757Z,16.56
2022-08-28T03:50:00.907Z,16.52
2022-08-28T03:51:01.069Z,16.51
2022-08-28T03:52:01.225Z,16.49
2022-08-28T03:53:00.406Z,16.49
2022-08-28T03:54:00.522Z,16.47
2022-08-28T03:55:00.672Z,16.45
2022-08-28T03:56:00.823Z,16.43
2022-08-28T03:57:00.967Z,16.42
2022-08-28T03:58:01.155Z,16.42
2022-08-28T03:59:00.262Z,16.41
2022-08-28T04:00:00.426Z,16.4
2022-08-28T04:01:00.605Z,16.39
2022-08-28T04:02:00.722Z,16.37
2022-08-28T04:03:00.953Z,16.37
2022-08-28T04:04:01.021Z,16.35
2022-08-28T04:05:01.197Z,16.34
2022-08-28T04:06:00.330Z,16.33
2022-08-28T04:07:00.476Z,16.32
2022-08-28T04:08:00.633Z,16.33
2022-08-28T04:09:00.776Z,16.33
2022-08-28T04:10:00.955Z,16.34
2022-08-28T04:11:01.085Z,16.34
2022-08-28T04:12:01.265Z,16.34
2022-08-28T04:13:00.381Z,16.35
2022-08-28T04:14:00.535Z,16.35
2022-08-28T04:15:00.710Z,16.35
2022-08-28T04:16:00.831Z,16.36
2022-08-28T04:17:01.722Z,16.35
2022-08-28T04:18:01.161Z,16.36
2022-08-28T04:19:00.302Z,16.35
2022-08-28T04:20:00.441Z,16.34
2022-08-28T04:21:00.593Z,16.36
2022-08-28T04:22:00.744Z,16.35
2022-08-28T04:23:00.921Z,16.36
2022-08-28T04:24:01.039Z,16.35
2022-08-28T04:25:01.221Z,16.34
2022-08-28T04:26:00.358Z,16.34
2022-08-28T04:27:00.492Z,16.35
2022-08-28T04:28:00.645Z,16.35
2022-08-28T04:29:00.793Z,16.36
2022-08-28T04:30:00.971Z,16.36
2022-08-28T04:31:01.097Z,16.36
2022-08-28T04:32:01.332Z,16.35
2022-08-28T04:33:00.398Z,16.39
2022-08-28T04:34:00.553Z,16.4
2022-08-28T04:35:00.733Z,16.41
2022-08-28T04:36:00.891Z,16.4
2022-08-28T04:37:01.022Z,16.4
2022-08-28T04:38:02.520Z,16.39
2022-08-28T04:39:00.317Z,16.4
2022-08-28T04:40:00.598Z,16.42
2022-08-28T04:41:00.633Z,16.41
2022-08-28T04:42:00.761Z,16.43
2022-08-28T04:43:00.916Z,16.39
2022-08-28T04:44:01.077Z,16.4
2022-08-28T04:45:01.269Z,16.41
2022-08-28T04:46:00.400Z,16.36
2022-08-28T04:47:00.526Z,16.37
2022-08-28T04:48:00.687Z,16.39
2022-08-28T04:49:00.830Z,16.37
2022-08-28T04:50:01.009Z,16.34
2022-08-28T04:51:01.167Z,16.32
2022-08-28T04:52:00.278Z,16.33
2022-08-28T04:53:00.441Z,16.34
2022-08-28T04:54:00.590Z,16.35
2022-08-28T04:55:00.736Z,16.35
2022-08-28T04:56:00.917Z,16.34
2022-08-28T04:57:01.022Z,16.33
2022-08-28T04:58:01.188Z,16.35
2022-08-28T04:59:00.338Z,16.3
2022-08-28T05:00:00.486Z,16.3
2022-08-28T05:01:00.693Z,16.31
2022-08-28T05:02:00.840Z,16.32
2022-08-28T05:03:00.932Z,16.33
2022-08-28T05:04:01.082Z,16.33
2022-08-28T05:05:01.244Z,16.35
2022-08-28T05:06:00.428Z,16.36
2022-08-28T05:07:00.551Z,16.35
2022-08-28T05:08:00.698Z,16.37
2022-08-28T05:09:00.842Z,16.39
2022-08-28T05:10:00.991Z,16.41
2022-08-28T05:11:01.165Z,16.4
2022-08-28T05:12:00.291Z,16.4
2022-08-28T05:13:00.432Z,16.39
2022-08-28T05:14:00.584Z,16.33
2022-08-28T05:15:00.727Z,16.3
2022-08-28T05:16:00.956Z,16.3
2022-08-28T05:17:01.039Z,16.33
2022-08-28T05:18:01.187Z,16.33
2022-08-28T05:19:00.380Z,16.29
2022-08-28T05:20:00.489Z,16.3
2022-08-28T05:21:00.660Z,16.26
2022-08-28T05:22:00.807Z,16.26
2022-08-28T05:23:00.939Z,16.24
2022-08-28T05:24:01.095Z,16.22
2022-08-28T05:25:01.235Z,16.2
2022-08-28T05:26:00.386Z,16.19
2022-08-28T05:27:00.571Z,16.18
2022-08-28T05:28:00.713Z,16.16
2022-08-28T05:29:00.841Z,16.15
2022-08-28T05:30:02.071Z,16.16
2022-08-28T05:31:01.154Z,16.14
2022-08-28T05:32:00.392Z,16.14
2022-08-28T05:33:00.473Z,16.15
2022-08-28T05:34:00.602Z,16.18
2022-08-28T05:35:00.762Z,16.2
2022-08-28T05:36:00.910Z,16.21
2022-08-28T05:37:01.093Z,16.24
2022-08-28T05:38:01.236Z,16.24
2022-08-28T05:39:00.367Z,16.26
2022-08-28T05:40:00.580Z,16.25
2022-08-28T05:41:00.672Z,16.26
2022-08-28T05:42:00.832Z,16.26
2022-08-28T05:43:00.963Z,16.26
2022-08-28T05:44:01.130Z,16.26
2022-08-28T05:45:00.265Z,16.26
2022-08-28T05:46:00.469Z,16.2
2022-08-28T05:47:00.588Z,16.2
2022-08-28T05:48:00.731Z,16.24
2022-08-28T05:49:00.871Z,16.21
2022-08-28T05:50:01.017Z,16.18
2022-08-28T05:51:01.172Z,16.16
2022-08-28T05:52:00.329Z,16.17
2022-08-28T05:53:00.484Z,16.15
2022-08-28T05:54:00.620Z,16.18
2022-08-28T05:55:00.765Z,16.2
2022-08-28T05:56:00.919Z,16.22
2022-08-28T05:57:01.068Z,16.19
2022-08-28T05:58:01.244Z,16.19
2022-08-28T05:59:00.374Z,16.19
2022-08-28T06:00:00.527Z,16.2
2022-08-28T06:01:00.679Z,16.22
2022-08-28T06:02:04.145Z,16.24
2022-08-28T06:03:01.002Z,16.24
2022-08-28T06:04:01.241Z,16.22
2022-08-28T06:05:00.274Z,16.22
2022-08-28T06:06:00.429Z,16.26
2022-08-28T06:07:00.581Z,16.26
2022-08-28T06:08:00.745Z,16.29
2022-08-28T06:09:00.872Z,16.31
2022-08-28T06:10:01.019Z,16.3
2022-08-28T06:11:01.175Z,16.27
2022-08-28T06:12:00.340Z,16.26
2022-08-28T06:13:00.489Z,16.22
2022-08-28T06:14:00.661Z,16.21
2022-08-28T06:15:00.783Z,16.18
2022-08-28T06:16:00.977Z,16.17
2022-08-28T06:17:01.084Z,16.16
2022-08-28T06:18:01.236Z,16.15
2022-08-28T06:19:00.691Z,16.14
2022-08-28T06:20:00.534Z,16.15
2022-08-28T06:21:00.684Z,16.17
2022-08-28T06:22:00.840Z,16.18
2022-08-28T06:23:00.988Z,16.15
2022-08-28T06:24:01.164Z,16.13
2022-08-28T06:25:00.292Z,16.1
2022-08-28T06:26:00.441Z,16.05
2022-08-28T06:27:00.595Z,16.04
2022-08-28T06:28:00.747Z,16.04
2022-08-28T06:29:00.906Z,16.05
2022-08-28T06:30:01.057Z,16.05
2022-08-28T06:31:18.573Z,16.05
2022-08-28T06:32:00.429Z,16.05
2022-08-28T06:33:00.587Z,16.05
2022-08-28T06:34:00.660Z,16.05
2022-08-28T06:35:00.813Z,16.04
2022-08-28T06:36:00.944Z,16.03
2022-08-28T06:37:01.090Z,16.05
2022-08-28T06:38:01.249Z,16.05
2022-08-28T06:39:00.398Z,16.02
2022-08-28T06:40:00.621Z,16
2022-08-28T06:41:00.698Z,16.05
2022-08-28T06:42:00.839Z,16.07
2022-08-28T06:43:00.990Z,16.11
2022-08-28T06:44:01.141Z,16.14
2022-08-28T06:45:00.317Z,16.13
2022-08-28T06:46:00.505Z,16.14
2022-08-28T06:47:00.596Z,16.14
2022-08-28T06:48:00.749Z,16.12
2022-08-28T06:49:00.904Z,16.07
2022-08-28T06:50:01.065Z,16.02
2022-08-28T06:51:01.229Z,15.98
2022-08-28T06:52:00.345Z,15.96
2022-08-28T06:53:00.496Z,15.92
2022-08-28T06:54:00.651Z,15.91
2022-08-28T06:55:00.812Z,15.92
2022-08-28T06:56:00.967Z,15.95
2022-08-28T06:57:01.102Z,15.96
2022-08-28T06:58:01.251Z,15.97
2022-08-28T06:59:00.401Z,15.98
2022-08-28T07:00:00.558Z,15.97
2022-08-28T07:01:02.984Z,15.99
2022-08-28T07:02:01.073Z,16
2022-08-28T07:03:01.067Z,16.01
2022-08-28T07:04:01.170Z,16
2022-08-28T07:05:00.328Z,16
2022-08-28T07:06:00.475Z,16
2022-08-28T07:07:00.666Z,15.99
2022-08-28T07:08:00.779Z,16
2022-08-28T07:09:00.931Z,16.03
2022-08-28T07:10:01.080Z,16.03
2022-08-28T07:11:01.223Z,16.02
2022-08-28T07:12:00.397Z,16.03
2022-08-28T07:13:00.530Z,16.02
2022-08-28T07:14:00.673Z,16.04
2022-08-28T07:15:00.836Z,16.06
2022-08-28T07:16:01.050Z,16.12
2022-08-28T07:17:01.147Z,16.14
2022-08-28T07:18:00.281Z,16.11
2022-08-28T07:19:00.436Z,16.12
2022-08-28T07:20:00.585Z,16.15
2022-08-28T07:21:00.734Z,16.17
2022-08-28T07:22:00.897Z,16.17
2022-08-28T07:23:01.059Z,16.17
2022-08-28T07:24:01.188Z,16.21
2022-08-28T07:25:00.336Z,16.26
2022-08-28T07:26:00.482Z,16.31
2022-08-28T07:27:00.625Z,16.35
2022-08-28T07:28:00.811Z,16.36
2022-08-28T07:29:10.714Z,16.36
2022-08-28T07:30:01.120Z,16.4
2022-08-28T07:31:01.305Z,16.42
2022-08-28T07:32:00.415Z,16.45
2022-08-28T07:33:00.547Z,16.49
2022-08-28T07:34:00.702Z,16.52
2022-08-28T07:35:00.885Z,16.55
2022-08-28T07:36:01.069Z,16.58
2022-08-28T07:37:01.184Z,16.61
2022-08-28T07:38:00.336Z,16.64
2022-08-28T07:39:00.471Z,16.7
2022-08-28T07:40:00.701Z,16.73
2022-08-28T07:41:00.769Z,16.74
2022-08-28T07:42:00.918Z,16.76
2022-08-28T07:43:01.068Z,16.79
2022-08-28T07:44:01.226Z,16.82
2022-08-28T07:45:00.387Z,16.87
2022-08-28T07:46:00.593Z,16.88
2022-08-28T07:47:00.686Z,16.89
2022-08-28T07:48:00.835Z,16.86
2022-08-28T07:49:00.980Z,16.85
2022-08-28T07:50:01.156Z,16.82
2022-08-28T07:51:00.283Z,16.8
2022-08-28T07:52:00.436Z,16.81
2022-08-28T07:53:00.590Z,16.81
2022-08-28T07:54:00.736Z,16.82
2022-08-28T07:55:00.904Z,16.86
2022-08-28T07:56:01.041Z,16.87
2022-08-28T07:57:01.212Z,16.88
2022-08-28T07:58:00.345Z,16.91
2022-08-28T07:59:00.505Z,16.91
2022-08-28T08:00:00.648Z,16.91
2022-08-28T08:01:00.797Z,16.92
2022-08-28T08:02:00.967Z,16.92
2022-08-28T08:03:01.130Z,16.98
2022-08-28T08:04:01.651Z,16.98
2022-08-28T08:05:00.413Z,16.95
2022-08-28T08:06:00.571Z,16.93
2022-08-28T08:07:00.746Z,16.93
2022-08-28T08:08:00.910Z,16.93
2022-08-28T08:09:01.017Z,16.95
2022-08-28T08:10:01.170Z,16.96
2022-08-28T08:11:00.315Z,16.95
2022-08-28T08:12:00.497Z,16.95
2022-08-28T08:13:00.635Z,16.96
2022-08-28T08:14:00.773Z,17
2022-08-28T08:15:00.927Z,17.02
2022-08-28T08:16:01.167Z,17.04
2022-08-28T08:17:01.243Z,17.05
2022-08-28T08:18:00.388Z,17.05
2022-08-28T08:19:00.532Z,17.06
2022-08-28T08:20:00.680Z,17.1
2022-08-28T08:21:00.832Z,17.17
2022-08-28T08:22:01.003Z,17.22
2022-08-28T08:23:01.139Z,17.31
2022-08-28T08:24:00.297Z,17.34
2022-08-28T08:25:00.444Z,17.36
2022-08-28T08:26:00.610Z,17.37
2022-08-28T08:27:01.079Z,17.41
2022-08-28T08:28:00.912Z,17.47
2022-08-28T08:29:01.050Z,17.53
2022-08-28T08:30:01.206Z,17.54
2022-08-28T08:31:00.412Z,17.56
2022-08-28T08:32:00.511Z,17.58
2022-08-28T08:33:00.659Z,17.55
2022-08-28T08:34:00.813Z,17.56
2022-08-28T08:35:00.960Z,17.6
2022-08-28T08:36:01.114Z,17.58
2022-08-28T08:37:00.290Z,17.63
2022-08-28T08:38:02.861Z,17.67
2022-08-28T08:39:00.732Z,17.72
2022-08-28T08:40:00.865Z,17.7
2022-08-28T08:41:00.876Z,17.63
2022-08-28T08:42:01.047Z,17.61
2022-08-28T08:43:01.165Z,17.65
2022-08-28T08:44:00.338Z,17.67
2022-08-28T08:45:00.462Z,17.69
2022-08-28T08:46:00.636Z,17.68
2022-08-28T08:47:00.791Z,17.63
2022-08-28T08:48:00.924Z,17.66
2022-08-28T08:49:01.091Z,17.72
2022-08-28T08:50:01.242Z,17.75
2022-08-28T08:51:00.400Z,17.76
2022-08-28T08:52:00.575Z,17.76
2022-08-28T08:53:00.720Z,17.78
2022-08-28T08:54:00.839Z,17.84
2022-08-28T08:55:00.987Z,17.91
2022-08-28T08:56:01.166Z,17.99
2022-08-28T08:57:00.295Z,18.08
2022-08-28T08:58:00.438Z,18.11
2022-08-28T08:59:00.611Z,18.18
2022-08-28T09:00:00.745Z,18.22
2022-08-28T09:01:00.989Z,18.23
2022-08-28T09:02:01.058Z,18.24
2022-08-28T09:03:01.277Z,18.27
2022-08-28T09:04:00.387Z,18.3
2022-08-28T09:05:00.484Z,18.3
2022-08-28T09:06:00.635Z,18.27
2022-08-28T09:07:00.788Z,18.28
2022-08-28T09:08:00.940Z,18.28
2022-08-28T09:09:01.109Z,18.25
2022-08-28T09:10:01.256Z,18.24
2022-08-28T09:11:00.408Z,18.28
2022-08-28T09:12:00.553Z,18.29
2022-08-28T09:13:00.705Z,18.29
2022-08-28T09:14:00.870Z,18.33
2022-08-28T09:15:00.993Z,18.37
2022-08-28T09:16:01.157Z,18.34
2022-08-28T09:17:00.300Z,18.29
2022-08-28T09:18:00.456Z,18.3
2022-08-28T09:19:00.629Z,18.22
2022-08-28T09:20:00.782Z,18.23
2022-08-28T09:21:00.910Z,18.25
2022-08-28T09:22:01.070Z,18.26
2022-08-28T09:23:02.143Z,18.29
2022-08-28T09:24:00.375Z,18.34
2022-08-28T09:25:00.536Z,18.39
2022-08-28T09:26:01.653Z,18.43
2022-08-28T09:27:00.866Z,18.49
2022-08-28T09:28:01.003Z,18.53
2022-08-28T09:29:01.148Z,18.55
2022-08-28T09:30:02.538Z,18.65
2022-08-28T09:31:00.526Z,18.73
2022-08-28T09:32:00.614Z,18.77
2022-08-28T09:33:00.755Z,18.82
2022-08-28T09:34:01.009Z,18.83
2022-08-28T09:35:01.045Z,18.86
2022-08-28T09:36:01.199Z,18.88
2022-08-28T09:37:00.374Z,18.87
2022-08-28T09:38:00.503Z,18.87
2022-08-28T09:39:00.654Z,18.87
2022-08-28T09:40:00.855Z,18.89
2022-08-28T09:41:00.961Z,18.91
2022-08-28T09:42:01.133Z,18.92
2022-08-28T09:43:00.260Z,18.91
2022-08-28T09:44:00.410Z,18.91
2022-08-28T09:45:00.569Z,18.94
2022-08-28T09:46:00.802Z,18.96
2022-08-28T09:47:00.892Z,18.96
2022-08-28T09:48:01.038Z,18.96
2022-08-28T09:49:01.181Z,18.95
2022-08-28T09:50:00.327Z,19.03
2022-08-28T09:51:00.489Z,19.13
2022-08-28T09:52:00.639Z,19.15
2022-08-28T09:53:00.790Z,19.17
2022-08-28T09:54:00.929Z,19.16
2022-08-28T09:55:01.098Z,19.24
2022-08-28T09:56:01.257Z,19.33
2022-08-28T09:57:00.380Z,19.37
2022-08-28T09:58:00.584Z,19.39
2022-08-28T09:59:00.699Z,19.44
2022-08-28T10:00:00.848Z,19.44
2022-08-28T10:01:01.004Z,19.53
2022-08-28T10:02:01.222Z,19.61
2022-08-28T10:03:03.294Z,19.74
2022-08-28T10:04:00.486Z,19.87
2022-08-28T10:05:00.588Z,19.91
2022-08-28T10:06:00.760Z,19.91
2022-08-28T10:07:00.902Z,19.91
2022-08-28T10:08:01.055Z,19.91
2022-08-28T10:09:01.227Z,19.87
2022-08-28T10:10:00.350Z,19.87
2022-08-28T10:11:00.509Z,19.81
2022-08-28T10:12:00.647Z,19.71
2022-08-28T10:13:00.792Z,19.57
2022-08-28T10:14:00.963Z,19.42
2022-08-28T10:15:01.091Z,19.33
2022-08-28T10:16:01.325Z,19.27
2022-08-28T10:17:00.400Z,19.24
2022-08-28T10:18:00.556Z,19.23
2022-08-28T10:19:00.707Z,19.22
2022-08-28T10:20:00.847Z,19.22
2022-08-28T10:21:01.005Z,19.23
2022-08-28T10:22:01.162Z,19.27
2022-08-28T10:23:00.314Z,19.29
2022-08-28T10:24:00.442Z,19.36
2022-08-28T10:25:00.586Z,19.36
2022-08-28T10:26:00.741Z,19.35
2022-08-28T10:27:00.882Z,19.29
2022-08-28T10:28:01.060Z,19.26
2022-08-28T10:29:01.180Z,19.28
2022-08-28T10:30:05.168Z,19.3
2022-08-28T10:31:00.553Z,19.38
2022-08-28T10:32:00.637Z,19.45
2022-08-28T10:33:00.797Z,19.54
2022-08-28T10:34:00.949Z,19.56
2022-08-28T10:35:01.091Z,19.59
2022-08-28T10:36:01.264Z,19.56
2022-08-28T10:37:00.408Z,19.53
2022-08-28T10:38:00.554Z,19.48
2022-08-28T10:39:00.697Z,19.45
2022-08-28T10:40:00.908Z,19.43
2022-08-28T10:41:01.034Z,19.44
2022-08-28T10:42:01.159Z,19.45
2022-08-28T10:43:00.292Z,19.46
2022-08-28T10:44:00.436Z,19.46
2022-08-28T10:45:01.272Z,19.47
2022-08-28T10:46:00.810Z,19.43
2022-08-28T10:47:00.927Z,19.4
2022-08-28T10:48:01.054Z,19.4
2022-08-28T10:49:01.212Z,19.41
2022-08-28T10:50:00.344Z,19.45
2022-08-28T10:51:00.494Z,19.45
2022-08-28T10:52:00.670Z,19.47
2022-08-28T10:53:00.818Z,19.58
2022-08-28T10:54:01.061Z,19.68
2022-08-28T10:55:01.129Z,19.74
2022-08-28T10:56:01.253Z,19.73
2022-08-28T10:57:00.404Z,19.75
2022-08-28T10:58:00.615Z,19.79
2022-08-28T10:59:00.731Z,19.77
2022-08-28T11:00:00.868Z,19.79
2022-08-28T11:01:01.152Z,19.83
2022-08-28T11:02:01.179Z,19.88
2022-08-28T11:03:00.514Z,19.91
2022-08-28T11:04:00.472Z,19.91
2022-08-28T11:05:00.628Z,19.91
2022-08-28T11:06:00.767Z,19.91
2022-08-28T11:07:00.923Z,19.92
2022-08-28T11:08:01.110Z,20.06
2022-08-28T11:09:01.218Z,20.17
2022-08-28T11:10:00.381Z,20.18
2022-08-28T11:11:00.529Z,20.14
2022-08-28T11:12:02.295Z,20.11
2022-08-28T11:13:00.847Z,20.1
2022-08-28T11:14:00.999Z,20.09
2022-08-28T11:15:01.131Z,20.04
2022-08-28T11:16:00.287Z,20.06
2022-08-28T11:17:00.502Z,20.1
2022-08-28T11:18:00.590Z,20.09
2022-08-28T11:19:00.753Z,20.09
2022-08-28T11:20:00.873Z,20.07
2022-08-28T11:21:01.026Z,20.09
2022-08-28T11:22:01.202Z,20.07
2022-08-28T11:23:00.325Z,20.16
2022-08-28T11:24:00.489Z,20.2
2022-08-28T11:25:04.315Z,20.22
2022-08-28T11:26:00.793Z,20.25
2022-08-28T11:27:00.937Z,20.25
2022-08-28T11:28:01.092Z,20.3
2022-08-28T11:29:01.257Z,20.34
2022-08-28T11:30:00.384Z,20.39
2022-08-28T11:31:00.618Z,20.42
2022-08-28T11:32:00.696Z,20.48
2022-08-28T11:33:00.841Z,20.48
2022-08-28T11:34:01.031Z,20.49
2022-08-28T11:35:01.142Z,20.5
2022-08-28T11:36:00.298Z,20.47
2022-08-28T11:37:00.447Z,20.49
2022-08-28T11:38:00.598Z,20.57
2022-08-28T11:39:00.745Z,20.6
2022-08-28T11:40:00.946Z,20.65
2022-08-28T11:41:01.044Z,20.73
2022-08-28T11:42:01.194Z,20.78
2022-08-28T11:43:00.344Z,20.81
2022-08-28T11:44:00.484Z,20.88
2022-08-28T11:45:00.650Z,21.02
2022-08-28T11:46:01.013Z,21.09
2022-08-28T11:47:00.940Z,21.11
2022-08-28T11:48:01.089Z,21.05
2022-08-28T11:49:01.233Z,21.01
2022-08-28T11:50:00.390Z,20.96
2022-08-28T11:51:00.550Z,20.93
2022-08-28T11:52:00.705Z,20.96
2022-08-28T11:53:00.855Z,20.95
2022-08-28T11:54:00.995Z,20.91
2022-08-28T11:55:01.139Z,20.92
2022-08-28T11:56:00.307Z,20.93
2022-08-28T11:57:00.463Z,20.91
2022-08-28T11:59:00.807Z,20.93
2022-08-28T12:00:00.900Z,20.91
2022-08-28T12:01:01.074Z,20.88
2022-08-28T12:02:01.225Z,20.85
2022-08-28T12:03:00.349Z,20.83
2022-08-28T12:04:02.811Z,20.8
2022-08-28T12:05:00.664Z,20.79
2022-08-28T12:06:00.821Z,20.89
2022-08-28T12:07:00.971Z,20.99
2022-08-28T12:08:01.148Z,20.98
2022-08-28T12:09:01.273Z,20.96
2022-08-28T12:10:04.802Z,20.98
2022-08-28T12:11:00.568Z,21
2022-08-28T12:12:00.734Z,21
2022-08-28T12:13:00.855Z,21.01
2022-08-28T12:14:00.990Z,21.11
2022-08-28T12:15:01.153Z,21.2
2022-08-28T12:16:00.348Z,21.28
2022-08-28T12:17:00.468Z,21.29
2022-08-28T12:18:00.578Z,21.45
2022-08-28T12:19:00.735Z,21.5
2022-08-28T12:20:00.877Z,21.5
2022-08-28T12:21:01.038Z,21.51
2022-08-28T12:22:01.211Z,21.5
2022-08-28T12:23:00.352Z,21.5
2022-08-28T12:24:04.127Z,21.45
2022-08-28T12:25:00.636Z,21.37
2022-08-28T12:26:00.786Z,21.31
2022-08-28T12:27:00.944Z,21.28
2022-08-28T12:28:01.117Z,21.27
2022-08-28T12:29:01.224Z,21.28
2022-08-28T12:30:00.399Z,21.29
2022-08-28T12:31:00.533Z,21.36
2022-08-28T12:32:00.663Z,21.42
2022-08-28T12:33:00.844Z,21.46
2022-08-28T12:34:00.978Z,21.46
2022-08-28T12:35:01.134Z,21.43
2022-08-28T12:36:00.281Z,21.45
2022-08-28T12:37:00.421Z,21.6
2022-08-28T12:38:00.579Z,21.7
2022-08-28T12:39:00.758Z,21.69
2022-08-28T12:40:01.023Z,21.74
2022-08-28T12:41:01.046Z,21.79
2022-08-28T12:42:01.193Z,21.84
2022-08-28T12:43:00.349Z,21.83
2022-08-28T12:44:00.505Z,21.92
2022-08-28T12:45:00.653Z,21.98
2022-08-28T12:46:00.819Z,22.02
2022-08-28T12:47:00.949Z,21.93
2022-08-28T12:48:01.125Z,21.81
2022-08-28T12:49:01.253Z,21.73
2022-08-28T12:50:00.412Z,21.68
2022-08-28T12:51:00.564Z,21.67
2022-08-28T12:52:00.719Z,21.63
2022-08-28T12:53:00.880Z,21.55
2022-08-28T12:54:01.010Z,21.57
2022-08-28T12:55:01.161Z,21.58
2022-08-28T12:56:00.393Z,21.6
2022-08-28T12:57:00.474Z,21.61